Time;durP1;ratioP1;P1;durP2;ratioP2;P2;SDS_P1;SDS_P2;PMS_P1;PMS_P2;Temp;Humidity;BMP_temperature;BMP_pressure;BME280_temperature;BME280_humidity;BME280_pressure;Samples;Min_cycle;Max_cycle;Signal;HPM_P1;HPM_P2
2024/04/02 00:03:19;;;;;;;0.60;0.60;;;10.90;96.10;;;;;;10463102;28;20217;-79
2024/04/02 00:08:23;;;;;;;0.60;0.60;;;10.80;96.20;;;;;;10463880;28;20205;-79
2024/04/02 00:13:25;;;;;;;0.60;0.60;;;10.80;96.20;;;;;;10459909;28;20298;-79
2024/04/02 00:18:28;;;;;;;0.40;0.40;;;10.80;96.20;;;;;;10463233;28;20193;-79
2024/04/02 00:23:31;;;;;;;0.63;0.63;;;10.80;96.10;;;;;;10463324;28;20604;-79
2024/04/02 00:28:34;;;;;;;0.60;0.60;;;10.80;95.90;;;;;;10463082;28;20231;-79
2024/04/02 00:33:36;;;;;;;0.50;0.50;;;10.70;96.10;;;;;;10479691;22;20229;-75
2024/04/02 00:38:40;;;;;;;0.60;0.60;;;10.70;96.00;;;;;;10453323;28;20193;-76
2024/04/02 00:43:42;;;;;;;0.60;0.60;;;10.70;96.20;;;;;;10453868;28;20221;-76
2024/04/02 00:48:45;;;;;;;0.50;0.50;;;10.70;96.10;;;;;;10448141;28;20221;-75
2024/04/02 00:53:48;;;;;;;0.63;0.63;;;10.70;96.10;;;;;;10453403;28;20225;-75
2024/04/02 00:58:51;;;;;;;0.50;0.50;;;10.70;96.40;;;;;;10447911;28;20201;-75
2024/04/02 01:03:53;;;;;;;0.50;0.50;;;10.70;96.00;;;;;;10445788;28;20237;-75
2024/04/02 01:08:57;;;;;;;0.50;0.50;;;10.70;96.10;;;;;;10452761;28;20690;-76
2024/04/02 01:13:59;;;;;;;0.50;0.50;;;10.70;95.80;;;;;;10452557;28;20217;-75
2024/04/02 01:19:02;;;;;;;0.60;0.60;;;10.70;95.70;;;;;;10452466;28;20201;-75
2024/04/02 01:24:07;;;;;;;0.70;0.70;;;10.70;95.60;;;;;;10452095;28;20569;-76
2024/04/02 01:29:10;;;;;;;0.60;0.60;;;10.70;95.50;;;;;;10451473;28;20220;-75
2024/04/02 01:34:13;;;;;;;0.60;0.60;;;10.60;95.50;;;;;;10450782;28;20734;-75
2024/04/02 01:39:16;;;;;;;0.60;0.60;;;10.60;95.70;;;;;;10451433;28;20694;-75
2024/04/02 01:44:19;;;;;;;0.57;0.57;;;10.60;95.60;;;;;;10451396;28;20247;-75
2024/04/02 01:49:22;;;;;;;0.70;0.70;;;10.60;95.50;;;;;;10450712;28;20633;-75
2024/04/02 01:54:24;;;;;;;0.70;0.70;;;10.60;95.40;;;;;;10450826;28;20274;-74
2024/04/02 01:59:28;;;;;;;0.83;0.83;;;10.70;95.40;;;;;;10445457;28;20816;-76
2024/04/02 02:04:30;;;;;;;1.00;1.00;;;10.60;95.50;;;;;;10449835;28;20217;-75
2024/04/02 02:09:33;;;;;;;0.77;0.77;;;10.70;95.30;;;;;;10450338;28;20240;-77
2024/04/02 02:14:36;;;;;;;0.90;0.90;;;10.70;95.30;;;;;;10450368;28;20228;-76
2024/04/02 02:19:39;;;;;;;0.90;0.90;;;10.60;95.50;;;;;;10450051;28;20251;-76
2024/04/02 02:24:41;;;;;;;0.80;0.80;;;10.60;95.20;;;;;;10449871;28;20221;-76
2024/04/02 02:29:45;;;;;;;0.80;0.80;;;10.60;95.50;;;;;;10449751;28;20286;-75
2024/04/02 02:34:47;;;;;;;0.83;0.83;;;10.60;95.70;;;;;;10449185;28;20653;-76
2024/04/02 02:39:49;;;;;;;0.80;0.80;;;10.60;95.80;;;;;;10449515;28;20670;-76
2024/04/02 02:44:53;;;;;;;0.70;0.70;;;10.60;95.80;;;;;;10449203;28;20236;-76
2024/04/02 02:49:55;;;;;;;0.70;0.70;;;10.60;95.70;;;;;;10448377;28;20225;-74
2024/04/02 02:54:58;;;;;;;0.70;0.70;;;10.60;95.50;;;;;;10449204;28;20279;-74
2024/04/02 03:00:01;;;;;;;0.70;0.70;;;10.60;95.50;;;;;;10449388;28;20673;-74
2024/04/02 03:05:04;;;;;;;0.80;0.80;;;10.50;95.70;;;;;;10448483;28;20221;-74
2024/04/02 03:10:07;;;;;;;0.83;0.83;;;10.50;95.70;;;;;;10432593;28;20303;-76
2024/04/02 03:15:11;;;;;;;0.90;0.90;;;10.50;95.60;;;;;;10455551;28;20686;-76
2024/04/02 03:20:13;;;;;;;0.80;0.80;;;10.50;95.50;;;;;;10453958;28;20591;-74
2024/04/02 03:25:15;;;;;;;0.90;0.90;;;10.50;95.50;;;;;;10456776;28;20274;-74
2024/04/02 03:30:19;;;;;;;1.00;1.00;;;10.40;95.60;;;;;;10456474;28;20768;-73
2024/04/02 03:35:21;;;;;;;1.00;1.00;;;10.40;95.60;;;;;;10456090;28;20217;-74
2024/04/02 03:40:24;;;;;;;0.77;0.77;;;10.40;95.50;;;;;;10456317;28;20439;-77
2024/04/02 03:45:28;;;;;;;1.10;1.10;;;10.40;95.40;;;;;;10455661;28;20267;-77
2024/04/02 03:50:30;;;;;;;0.70;0.70;;;10.40;95.40;;;;;;10456058;28;20547;-75
2024/04/02 03:55:36;;;;;;;1.00;1.00;;;10.30;95.20;;;;;;10456124;28;20748;-76
2024/04/02 04:00:44;;;;;;;0.90;0.90;;;10.20;95.40;;;;;;10447782;28;20223;-74
2024/04/02 04:05:46;;;;;;;0.70;0.70;;;10.20;95.50;;;;;;10452173;28;20205;-75
2024/04/02 04:10:48;;;;;;;0.90;0.90;;;10.30;95.50;;;;;;10454937;28;20224;-76
2024/04/02 04:15:56;;;;;;;0.80;0.80;;;10.30;95.50;;;;;;10449720;28;20714;-76
2024/04/02 04:21:01;;;;;;;0.80;0.80;;;10.30;95.30;;;;;;10454353;28;20224;-75
2024/04/02 04:26:06;;;;;;;0.50;0.50;;;10.40;95.10;;;;;;10453701;28;20255;-76
2024/04/02 04:31:09;;;;;;;0.70;0.70;;;10.40;95.30;;;;;;10453762;28;20570;-76
2024/04/02 04:36:12;;;;;;;0.80;0.80;;;10.40;95.30;;;;;;10453995;28;20255;-76
2024/04/02 04:41:14;;;;;;;0.90;0.90;;;10.40;95.30;;;;;;10453415;28;20224;-75
2024/04/02 04:46:18;;;;;;;0.90;0.90;;;10.50;95.30;;;;;;10453755;28;20247;-76
2024/04/02 04:51:21;;;;;;;0.60;0.60;;;10.40;95.20;;;;;;10448253;28;20224;-76
2024/04/02 04:56:23;;;;;;;0.60;0.60;;;10.40;95.00;;;;;;10452649;28;20682;-77
2024/04/02 05:01:27;;;;;;;0.70;0.70;;;10.30;94.90;;;;;;10452956;28;20633;-77
2024/04/02 05:06:32;;;;;;;0.80;0.80;;;10.30;95.10;;;;;;10452673;28;20208;-75
2024/04/02 05:11:34;;;;;;;0.60;0.60;;;10.30;94.90;;;;;;10452129;28;20236;-75
2024/04/02 05:16:38;;;;;;;0.80;0.80;;;10.20;95.10;;;;;;10439393;28;20297;-77
2024/04/02 05:21:40;;;;;;;0.80;0.80;;;10.30;95.10;;;;;;10450621;28;20224;-78
2024/04/02 05:26:44;;;;;;;0.70;0.70;;;10.30;95.10;;;;;;10439094;28;20812;-75
2024/04/02 05:31:47;;;;;;;0.60;0.60;;;10.30;95.20;;;;;;10451741;28;20271;-75
2024/04/02 05:36:50;;;;;;;0.80;0.80;;;10.30;94.90;;;;;;10450779;28;20197;-77
2024/04/02 05:41:52;;;;;;;0.60;0.60;;;10.30;95.10;;;;;;10451468;28;20221;-75
2024/04/02 05:46:56;;;;;;;0.70;0.70;;;10.40;95.20;;;;;;10451313;28;20201;-74
2024/04/02 05:51:58;;;;;;;0.80;0.80;;;10.50;95.30;;;;;;10450290;28;20732;-75
2024/04/02 05:57:00;;;;;;;0.53;0.53;;;10.60;95.10;;;;;;10451013;28;20239;-73
2024/04/02 06:02:04;;;;;;;0.60;0.60;;;10.60;95.00;;;;;;10449153;28;20221;-75
2024/04/02 06:07:07;;;;;;;0.80;0.80;;;10.50;95.00;;;;;;10449981;28;20197;-76
2024/04/02 06:12:10;;;;;;;0.70;0.70;;;10.50;95.00;;;;;;10450291;28;20213;-74
2024/04/02 06:17:14;;;;;;;0.70;0.70;;;10.50;95.40;;;;;;10449650;28;20557;-75
2024/04/02 06:22:16;;;;;;;0.80;0.80;;;10.40;95.30;;;;;;10450272;28;20213;-75
2024/04/02 06:27:18;;;;;;;0.50;0.50;;;10.50;95.60;;;;;;10450151;28;20208;-76
2024/04/02 06:32:23;;;;;;;0.60;0.60;;;10.60;95.80;;;;;;10450221;28;20229;-76
2024/04/02 06:37:25;;;;;;;0.70;0.70;;;10.80;95.80;;;;;;10449650;28;20239;-76
2024/04/02 06:42:27;;;;;;;0.70;0.70;;;10.90;95.90;;;;;;10449165;28;20240;-76
2024/04/02 06:47:31;;;;;;;0.60;0.60;;;10.90;96.00;;;;;;10449093;28;20729;-76
2024/04/02 06:52:33;;;;;;;0.60;0.60;;;11.00;96.20;;;;;;10443257;28;20266;-75
2024/04/02 06:57:36;;;;;;;0.70;0.70;;;11.10;96.70;;;;;;10448848;28;20695;-76
2024/04/02 07:02:39;;;;;;;0.60;0.60;;;11.20;97.00;;;;;;10448886;28;20217;-75
2024/04/02 07:07:42;;;;;;;0.60;0.60;;;11.30;97.10;;;;;;10447747;28;20201;-76
2024/04/02 07:12:44;;;;;;;0.67;0.67;;;11.40;96.50;;;;;;10448753;28;20259;-76
2024/04/02 07:17:48;;;;;;;0.50;0.50;;;11.30;96.40;;;;;;10448081;28;20213;-76
2024/04/02 07:22:50;;;;;;;0.50;0.50;;;11.10;96.30;;;;;;10448476;28;20686;-76
2024/04/02 07:27:53;;;;;;;0.50;0.50;;;11.10;96.70;;;;;;10448072;28;20205;-75
2024/04/02 07:32:56;;;;;;;0.40;0.40;;;11.20;96.70;;;;;;10437650;28;20295;-76
2024/04/02 07:37:59;;;;;;;0.43;0.43;;;11.30;96.10;;;;;;10448496;28;20197;-75
2024/04/02 07:43:01;;;;;;;0.40;0.40;;;11.40;96.00;;;;;;10448363;28;20218;-76
2024/04/02 07:48:06;;;;;;;0.40;0.40;;;11.60;95.90;;;;;;10448197;28;20682;-76
2024/04/02 07:53:08;;;;;;;0.50;0.50;;;11.70;95.50;;;;;;10447839;28;21021;-75
2024/04/02 07:58:11;;;;;;;0.40;0.40;;;11.80;95.00;;;;;;10448011;28;20204;-75
2024/04/02 08:03:15;;;;;;;0.30;0.30;;;11.90;94.80;;;;;;10455128;28;20221;-76
2024/04/02 08:08:17;;;;;;;0.40;0.40;;;12.30;94.30;;;;;;10455440;28;20193;-76
2024/04/02 08:13:20;;;;;;;0.40;0.40;;;12.50;93.80;;;;;;10455150;28;20213;-75
2024/04/02 08:18:24;;;;;;;0.40;0.40;;;12.80;93.20;;;;;;10454365;28;20202;-76
2024/04/02 08:23:26;;;;;;;0.50;0.50;;;13.10;93.20;;;;;;10454588;28;20282;-76
2024/04/02 08:28:28;;;;;;;0.30;0.30;;;13.40;93.30;;;;;;10446484;28;20205;-76
2024/04/02 08:33:32;;;;;;;0.50;0.50;;;13.40;91.50;;;;;;10453109;28;20228;-76
2024/04/02 08:38:35;;;;;;;0.40;0.40;;;13.40;92.20;;;;;;10453386;28;20212;-76
2024/04/02 08:43:38;;;;;;;0.40;0.40;;;13.40;92.00;;;;;;10453242;28;20232;-76
2024/04/02 08:48:44;;;;;;;0.40;0.40;;;13.60;91.10;;;;;;10454855;28;20208;-76
2024/04/02 08:53:46;;;;;;;0.40;0.40;;;13.60;91.30;;;;;;10452828;28;20638;-76
2024/04/02 08:58:50;;;;;;;0.50;0.50;;;13.60;91.20;;;;;;10452303;28;20209;-76
2024/04/02 09:03:55;;;;;;;0.50;0.50;;;13.70;91.00;;;;;;10451673;28;20278;-76
2024/04/02 09:08:57;;;;;;;0.40;0.40;;;13.60;90.50;;;;;;10451576;28;20189;-76
2024/04/02 09:14:01;;;;;;;0.60;0.60;;;13.60;90.20;;;;;;10451627;28;20221;-76
2024/04/02 09:19:07;;;;;;;0.50;0.50;;;13.40;90.80;;;;;;10451022;28;20209;-76
2024/04/02 09:24:10;;;;;;;0.50;0.50;;;13.60;90.30;;;;;;10451290;28;20303;-76
2024/04/02 09:29:13;;;;;;;0.50;0.50;;;13.70;90.30;;;;;;10450722;28;20232;-76
2024/04/02 09:34:18;;;;;;;0.40;0.40;;;14.00;90.30;;;;;;10437096;28;20233;-76
2024/04/02 09:39:22;;;;;;;0.50;0.50;;;14.20;90.20;;;;;;10450856;28;20582;-76
2024/04/02 09:44:26;;;;;;;0.50;0.50;;;14.60;89.00;;;;;;10450531;28;20436;-76
2024/04/02 09:49:31;;;;;;;0.50;0.50;;;14.80;89.10;;;;;;10441869;28;20608;-76
2024/04/02 09:54:36;;;;;;;0.50;0.50;;;15.10;87.50;;;;;;10448652;28;20613;-76
2024/04/02 09:59:39;;;;;;;0.50;0.50;;;15.30;87.30;;;;;;10448796;28;20205;-75
2024/04/02 10:04:42;;;;;;;0.40;0.40;;;15.40;83.80;;;;;;10449054;28;20228;-76
2024/04/02 10:09:45;;;;;;;0.50;0.50;;;15.50;83.60;;;;;;10449053;28;20225;-78
2024/04/02 10:14:49;;;;;;;0.40;0.40;;;15.50;84.60;;;;;;10449320;28;20216;-76
2024/04/02 10:19:53;;;;;;;0.50;0.50;;;15.50;82.20;;;;;;10448652;28;20678;-75
2024/04/02 10:25:06;;;;;;;0.50;0.50;;;15.50;83.30;;;;;;10448119;28;20251;-76
2024/04/02 10:30:16;;;;;;;0.60;0.60;;;15.60;81.80;;;;;;10448528;28;20221;-75
2024/04/02 10:35:22;;;;;;;0.50;0.50;;;15.60;81.40;;;;;;10448492;28;20299;-76
2024/04/02 10:40:24;;;;;;;0.50;0.50;;;15.60;81.30;;;;;;10448314;28;20197;-76
2024/04/02 10:45:29;;;;;;;0.50;0.50;;;15.70;79.10;;;;;;10440956;28;20213;-77
2024/04/02 10:50:32;;;;;;;0.50;0.50;;;15.50;80.20;;;;;;10448859;28;20216;-76
2024/04/02 10:55:35;;;;;;;0.50;0.50;;;15.40;80.40;;;;;;10445806;28;20200;-77
2024/04/02 11:00:37;;;;;;;0.50;0.50;;;15.30;82.60;;;;;;10444282;28;20274;-76
2024/04/02 11:05:41;;;;;;;0.60;0.60;;;14.90;82.00;;;;;;10444243;28;20208;-75
2024/04/02 11:10:48;;;;;;;0.50;0.50;;;14.70;83.70;;;;;;10445737;28;20225;-76
2024/04/02 11:15:51;;;;;;;0.50;0.50;;;14.60;84.50;;;;;;10441497;28;20202;-75
2024/04/02 11:20:58;;;;;;;0.60;0.60;;;14.60;86.70;;;;;;10436194;28;20225;-75
2024/04/02 11:26:08;;;;;;;0.60;0.60;;;14.70;86.80;;;;;;10447278;28;20240;-76
2024/04/02 11:31:12;;;;;;;0.40;0.40;;;14.70;91.10;;;;;;10447197;28;20229;-76
2024/04/02 11:36:15;;;;;;;0.60;0.60;;;14.60;90.00;;;;;;10453898;28;20732;-76
2024/04/02 11:41:18;;;;;;;0.50;0.50;;;14.50;90.00;;;;;;10455007;28;20213;-76
2024/04/02 11:46:21;;;;;;;0.40;0.40;;;14.20;89.80;;;;;;10452638;28;20198;-76
2024/04/02 11:51:24;;;;;;;0.50;0.50;;;14.00;87.70;;;;;;10454453;28;20271;-78
2024/04/02 12:00:01;;;;;;;0.40;0.40;;;13.90;88.20;;;;;;10454271;28;20259;-75
2024/04/02 12:01:49;;;;;;;0.33;0.33;;;13.90;87.30;;;;;;10449984;28;20271;-76
2024/04/02 12:06:57;;;;;;;0.30;0.30;;;14.00;87.70;;;;;;10454020;28;20570;-78
2024/04/02 12:11:59;;;;;;;0.50;0.50;;;14.30;87.40;;;;;;10444495;28;20221;-78
2024/04/02 12:17:02;;;;;;;0.40;0.40;;;14.40;88.20;;;;;;10453184;28;20198;-76
2024/04/02 12:22:05;;;;;;;0.50;0.50;;;14.60;85.30;;;;;;10453533;28;20220;-75
2024/04/02 12:27:08;;;;;;;0.47;0.47;;;14.50;84.80;;;;;;10445032;28;20671;-75
2024/04/02 12:32:11;;;;;;;0.50;0.50;;;14.40;85.80;;;;;;10453175;28;20236;-78
2024/04/02 12:37:16;;;;;;;0.40;0.40;;;14.30;85.90;;;;;;10452639;28;20204;-78
2024/04/02 12:42:19;;;;;;;0.50;0.50;;;14.40;83.90;;;;;;10452787;28;20217;-75
2024/04/02 12:47:21;;;;;;;0.50;0.50;;;14.60;86.60;;;;;;10451603;28;20205;-76
2024/04/02 12:52:25;;;;;;;0.40;0.40;;;14.50;90.00;;;;;;10452410;28;20221;-78
2024/04/02 12:57:28;;;;;;;0.50;0.50;;;14.40;90.60;;;;;;10452198;28;20201;-76
2024/04/02 13:02:30;;;;;;;0.40;0.40;;;14.10;90.10;;;;;;10442098;28;20270;-78
2024/04/02 13:07:40;;;;;;;0.50;0.50;;;13.90;90.10;;;;;;10451679;28;20623;-78
2024/04/02 13:12:42;;;;;;;0.30;0.30;;;13.80;89.70;;;;;;10459032;28;20255;-76
2024/04/02 13:17:44;;;;;;;0.30;0.30;;;13.80;88.20;;;;;;10451485;28;20700;-78
2024/04/02 13:22:48;;;;;;;0.30;0.30;;;13.80;88.90;;;;;;10442550;28;20662;-81
2024/04/02 13:27:51;;;;;;;0.40;0.40;;;14.00;86.10;;;;;;10451078;28;20201;-78
2024/04/02 13:32:54;;;;;;;0.60;0.60;;;14.00;83.50;;;;;;10452734;28;20225;-79
2024/04/02 13:37:58;;;;;;;0.60;0.60;;;14.10;82.50;;;;;;10437664;28;20259;-75
2024/04/02 13:43:00;;;;;;;0.63;0.63;;;14.10;82.60;;;;;;10450104;28;20224;-76
2024/04/02 13:48:02;;;;;;;0.60;0.60;;;14.20;83.50;;;;;;10449791;28;20197;-76
2024/04/02 13:53:06;;;;;;;0.50;0.50;;;14.30;85.00;;;;;;10449853;28;20443;-75
2024/04/02 13:58:09;;;;;;;0.43;0.43;;;14.40;84.20;;;;;;10448596;28;20674;-76
2024/04/02 14:03:11;;;;;;;0.40;0.40;;;14.50;84.60;;;;;;10449658;28;20216;-79
2024/04/02 14:08:15;;;;;;;0.40;0.40;;;14.40;83.90;;;;;;10449748;28;20626;-81
2024/04/02 14:13:19;;;;;;;0.40;0.40;;;14.60;85.60;;;;;;10449145;28;20217;-76
2024/04/02 14:18:21;;;;;;;0.60;0.60;;;14.60;85.00;;;;;;10449170;28;20267;-76
2024/04/02 14:23:26;;;;;;;0.70;0.70;;;14.70;86.20;;;;;;10449396;28;20220;-77
2024/04/02 14:28:30;;;;;;;0.70;0.70;;;14.90;84.60;;;;;;10449150;28;20216;-76
2024/04/02 14:33:32;;;;;;;0.50;0.50;;;15.00;83.90;;;;;;10434254;28;20232;-79
2024/04/02 14:38:36;;;;;;;0.70;0.70;;;15.10;83.90;;;;;;10455788;28;20748;-77
2024/04/02 14:43:39;;;;;;;0.60;0.60;;;15.20;82.80;;;;;;10441315;28;20283;-77
2024/04/02 14:48:41;;;;;;;0.60;0.60;;;15.00;82.60;;;;;;10449143;28;20213;-77
2024/04/02 14:53:45;;;;;;;0.60;0.60;;;15.00;84.20;;;;;;10448765;28;20568;-76
2024/04/02 14:58:47;;;;;;;0.70;0.70;;;15.00;83.90;;;;;;10448877;28;20209;-79
2024/04/02 15:03:50;;;;;;;0.70;0.70;;;15.20;82.20;;;;;;10448299;28;20270;-76
2024/04/02 15:08:56;;;;;;;0.50;0.50;;;15.20;82.80;;;;;;10450661;28;20209;-78
2024/04/02 15:13:58;;;;;;;0.70;0.70;;;15.10;84.80;;;;;;10456484;28;20271;-77
2024/04/02 15:19:00;;;;;;;0.53;0.53;;;15.10;82.20;;;;;;10456168;28;20560;-79
2024/04/02 15:24:04;;;;;;;0.40;0.40;;;15.00;84.10;;;;;;10456475;28;20220;-77
2024/04/02 15:29:07;;;;;;;0.50;0.50;;;14.90;82.90;;;;;;10455520;28;20209;-77
2024/04/02 15:34:09;;;;;;;0.50;0.50;;;14.80;84.30;;;;;;10448240;28;20282;-77
2024/04/02 15:39:13;;;;;;;0.30;0.30;;;14.80;84.90;;;;;;10456789;28;20205;-76
2024/04/02 15:44:15;;;;;;;0.50;0.50;;;14.90;85.50;;;;;;10447528;28;20903;-76
2024/04/02 15:49:17;;;;;;;0.50;0.50;;;15.00;84.80;;;;;;10466300;28;20251;-79
2024/04/02 15:54:21;;;;;;;0.50;0.50;;;15.00;84.20;;;;;;10449103;28;20221;-76
2024/04/02 15:59:24;;;;;;;0.40;0.40;;;15.00;83.70;;;;;;10455365;28;20197;-77
2024/04/02 16:04:27;;;;;;;0.50;0.50;;;15.00;84.60;;;;;;10455529;28;20217;-77
2024/04/02 16:09:32;;;;;;;0.50;0.50;;;14.80;84.90;;;;;;10454890;28;20205;-77
2024/04/02 16:14:34;;;;;;;0.50;0.50;;;14.80;83.80;;;;;;10454810;28;20247;-76
2024/04/02 16:19:37;;;;;;;0.60;0.60;;;14.70;85.30;;;;;;10454030;28;20197;-77
2024/04/02 16:24:41;;;;;;;0.40;0.40;;;14.70;83.90;;;;;;10450251;28;20209;-78
2024/04/02 16:29:43;;;;;;;0.50;0.50;;;14.80;83.20;;;;;;10454659;28;20193;-76
2024/04/02 16:34:46;;;;;;;0.60;0.60;;;14.80;83.80;;;;;;10453587;28;20570;-77
2024/04/02 16:39:49;;;;;;;0.40;0.40;;;14.80;84.30;;;;;;10454173;28;20224;-76
2024/04/02 16:44:52;;;;;;;0.40;0.40;;;14.80;82.80;;;;;;10449999;28;20282;-79
2024/04/02 16:49:54;;;;;;;0.40;0.40;;;14.80;83.00;;;;;;10453903;28;20255;-78
2024/04/02 16:54:58;;;;;;;0.50;0.50;;;14.70;82.50;;;;;;10448950;28;20731;-79
2024/04/02 17:00:05;;;;;;;0.60;0.60;;;14.60;82.90;;;;;;10453468;28;20651;-78
2024/04/02 17:05:07;;;;;;;0.60;0.60;;;14.60;82.20;;;;;;10453048;28;20482;-78
2024/04/02 17:10:11;;;;;;;0.57;0.57;;;14.60;81.20;;;;;;10450676;28;20201;-78
2024/04/02 17:15:14;;;;;;;0.60;0.60;;;14.60;81.60;;;;;;10449396;28;20217;-79
2024/04/02 17:20:16;;;;;;;0.70;0.70;;;14.60;81.50;;;;;;10451222;28;20732;-78
2024/04/02 17:25:20;;;;;;;0.50;0.50;;;14.50;84.20;;;;;;10448549;28;20356;-80
2024/04/02 17:30:22;;;;;;;0.70;0.70;;;14.50;81.40;;;;;;10451993;28;20263;-78
2024/04/02 17:35:25;;;;;;;0.60;0.60;;;14.50;81.10;;;;;;10452161;28;20286;-77
2024/04/02 17:40:30;;;;;;;0.60;0.60;;;14.40;80.00;;;;;;10450945;28;20228;-76
2024/04/02 17:45:32;;;;;;;0.80;0.80;;;14.40;80.00;;;;;;10452035;28;20232;-79
2024/04/02 17:50:35;;;;;;;0.60;0.60;;;14.30;80.00;;;;;;10451383;28;20254;-78
2024/04/02 17:55:39;;;;;;;0.70;0.70;;;14.10;80.00;;;;;;10451444;28;20221;-79
2024/04/02 18:00:41;;;;;;;0.57;0.57;;;14.00;79.60;;;;;;10450001;28;20248;-77
2024/04/02 18:05:44;;;;;;;0.50;0.50;;;13.80;79.90;;;;;;10446058;28;20225;-78
2024/04/02 18:10:48;;;;;;;0.60;0.60;;;13.70;80.70;;;;;;10449643;28;20713;-77
2024/04/02 18:15:51;;;;;;;0.50;0.50;;;13.60;81.10;;;;;;10450168;28;20233;-79
2024/04/02 18:20:54;;;;;;;0.60;0.60;;;13.60;81.30;;;;;;10448122;28;20221;-77
2024/04/02 18:26:00;;;;;;;0.70;0.70;;;13.50;82.30;;;;;;10446584;28;20216;-78
2024/04/02 18:31:05;;;;;;;0.70;0.70;;;13.40;82.00;;;;;;10445291;28;20224;-80
2024/04/02 18:36:09;;;;;;;0.70;0.70;;;13.30;83.00;;;;;;10446083;28;20222;-77
2024/04/02 18:41:13;;;;;;;0.90;0.90;;;13.20;82.90;;;;;;10449779;28;20228;-78
2024/04/02 18:46:15;;;;;;;0.60;0.60;;;13.10;83.20;;;;;;10448924;28;20604;-77
2024/04/02 18:51:17;;;;;;;0.90;0.90;;;13.00;83.60;;;;;;10449264;28;20604;-78
2024/04/02 18:56:23;;;;;;;0.77;0.77;;;12.90;83.90;;;;;;10450080;28;20225;-77
2024/04/02 19:01:25;;;;;;;0.80;0.80;;;12.90;83.70;;;;;;10450005;28;20221;-78
2024/04/02 19:06:30;;;;;;;0.87;0.87;;;12.90;83.20;;;;;;10450049;28;20193;-77
2024/04/02 19:11:35;;;;;;;0.80;0.80;;;12.80;83.40;;;;;;10443371;28;20220;-77
2024/04/02 19:16:37;;;;;;;0.87;0.87;;;12.80;83.90;;;;;;10446491;28;20258;-77
2024/04/02 19:21:40;;;;;;;0.60;0.60;;;12.70;84.20;;;;;;10438573;28;20225;-77
2024/04/02 19:26:45;;;;;;;0.60;0.60;;;12.60;84.80;;;;;;10448622;28;20197;-77
2024/04/02 19:31:48;;;;;;;0.60;0.60;;;12.60;85.10;;;;;;10448017;28;20668;-76
2024/04/02 19:36:51;;;;;;;0.50;0.50;;;12.50;84.80;;;;;;10446067;28;20213;-76
2024/04/02 19:41:54;;;;;;;0.70;0.70;;;12.50;84.90;;;;;;10448345;28;20500;-76
2024/04/02 19:46:57;;;;;;;0.60;0.60;;;12.40;85.10;;;;;;10448453;28;20625;-75
2024/04/02 19:52:00;;;;;;;0.50;0.50;;;12.40;85.50;;;;;;10422938;28;20224;-76
2024/04/02 19:57:04;;;;;;;0.70;0.70;;;12.40;84.90;;;;;;10454006;28;20201;-76
2024/04/02 20:02:07;;;;;;;0.60;0.60;;;12.40;85.00;;;;;;10454633;28;20214;-75
2024/04/02 20:07:09;;;;;;;0.60;0.60;;;12.40;84.80;;;;;;10454085;28;20680;-76
2024/04/02 20:12:13;;;;;;;0.70;0.70;;;12.50;84.40;;;;;;10454618;28;20229;-76
2024/04/02 20:17:15;;;;;;;0.70;0.70;;;12.50;84.30;;;;;;10444651;28;20217;-76
2024/04/02 20:22:17;;;;;;;0.70;0.70;;;12.60;84.00;;;;;;10453743;28;20781;-76
2024/04/02 20:27:21;;;;;;;0.70;0.70;;;12.50;84.30;;;;;;10454470;28;20201;-76
2024/04/02 20:32:24;;;;;;;0.60;0.60;;;12.50;84.30;;;;;;10452928;28;20225;-76
2024/04/02 20:37:26;;;;;;;0.80;0.80;;;12.50;84.20;;;;;;10454505;28;20287;-76
2024/04/02 20:42:30;;;;;;;0.60;0.60;;;12.50;83.40;;;;;;10454070;28;20694;-75
2024/04/02 20:47:33;;;;;;;0.70;0.70;;;12.40;84.20;;;;;;10454002;28;20205;-76
2024/04/02 20:52:35;;;;;;;0.67;0.67;;;12.30;84.40;;;;;;10453971;28;20220;-76
2024/04/02 20:57:39;;;;;;;0.60;0.60;;;12.20;84.70;;;;;;10452122;28;20201;-76
2024/04/02 21:02:41;;;;;;;0.60;0.60;;;12.10;84.40;;;;;;10445422;28;20225;-76
2024/04/02 21:07:44;;;;;;;0.60;0.60;;;12.00;84.70;;;;;;10455072;28;20201;-76
2024/04/02 21:12:48;;;;;;;0.90;0.90;;;12.00;84.20;;;;;;10453619;28;20849;-76
2024/04/02 21:17:50;;;;;;;0.70;0.70;;;12.00;84.40;;;;;;10453710;28;20225;-75
2024/04/02 21:22:53;;;;;;;0.70;0.70;;;11.90;84.10;;;;;;10442420;28;20217;-76
2024/04/02 21:27:56;;;;;;;0.80;0.80;;;11.90;84.10;;;;;;10461582;28;20198;-76
2024/04/02 21:32:59;;;;;;;0.50;0.50;;;11.90;84.20;;;;;;10456774;28;20224;-76
2024/04/02 21:38:01;;;;;;;0.40;0.40;;;11.90;84.00;;;;;;10457171;28;20194;-76
2024/04/02 21:43:05;;;;;;;0.30;0.30;;;11.90;83.60;;;;;;10451555;28;20695;-76
2024/04/02 21:48:08;;;;;;;0.40;0.40;;;11.90;84.00;;;;;;10456008;28;20197;-76
2024/04/02 21:53:10;;;;;;;0.40;0.40;;;11.90;83.30;;;;;;10453435;28;20251;-76
2024/04/02 21:58:14;;;;;;;0.40;0.40;;;11.90;83.80;;;;;;10448582;28;20255;-74
2024/04/02 22:03:17;;;;;;;0.40;0.40;;;11.90;83.90;;;;;;10453628;28;20228;-76
2024/04/02 22:08:19;;;;;;;0.40;0.40;;;11.90;84.00;;;;;;10454124;28;20219;-75
2024/04/02 22:13:24;;;;;;;0.43;0.43;;;11.90;84.30;;;;;;10456539;28;20240;-76
2024/04/02 22:18:26;;;;;;;0.50;0.50;;;11.90;83.90;;;;;;10449577;28;20197;-76
2024/04/02 22:23:28;;;;;;;0.50;0.50;;;11.90;84.10;;;;;;10456474;28;20637;-75
2024/04/02 22:28:32;;;;;;;0.40;0.40;;;11.90;84.30;;;;;;10450680;28;20201;-76
2024/04/02 22:33:34;;;;;;;0.40;0.40;;;11.80;84.70;;;;;;10454746;28;20232;-75
2024/04/02 22:38:37;;;;;;;0.50;0.50;;;11.80;84.80;;;;;;10458084;28;20312;-75
2024/04/02 22:43:41;;;;;;;0.40;0.40;;;11.70;84.90;;;;;;10456672;28;20640;-76
2024/04/02 22:48:43;;;;;;;0.50;0.50;;;11.70;85.50;;;;;;10452962;28;20255;-76
2024/04/02 22:53:45;;;;;;;0.43;0.43;;;11.70;85.70;;;;;;10449797;28;20232;-76
2024/04/02 22:58:49;;;;;;;0.57;0.57;;;11.70;85.60;;;;;;10449127;28;20201;-76
2024/04/02 23:03:51;;;;;;;0.53;0.53;;;11.70;85.50;;;;;;10448914;28;21022;-76
2024/04/02 23:08:54;;;;;;;0.40;0.40;;;11.70;85.00;;;;;;10449625;28;20567;-77
2024/04/02 23:13:58;;;;;;;0.50;0.50;;;11.80;85.20;;;;;;10449743;28;20642;-76
2024/04/02 23:19:00;;;;;;;0.50;0.50;;;11.80;84.90;;;;;;10437179;28;20209;-76
2024/04/02 23:24:03;;;;;;;0.60;0.60;;;11.90;83.80;;;;;;10448066;28;20706;-77
2024/04/02 23:29:07;;;;;;;0.40;0.40;;;11.90;83.80;;;;;;10450539;28;20709;-75
2024/04/02 23:34:09;;;;;;;0.50;0.50;;;12.00;83.00;;;;;;10457193;28;20415;-76
2024/04/02 23:39:11;;;;;;;0.50;0.50;;;12.00;83.80;;;;;;10457228;28;20560;-76
2024/04/02 23:44:15;;;;;;;0.60;0.60;;;11.90;83.50;;;;;;10456741;28;20225;-76
2024/04/02 23:49:17;;;;;;;0.50;0.50;;;11.80;83.50;;;;;;10456997;28;20205;-75
2024/04/02 23:54:20;;;;;;;0.40;0.40;;;11.80;83.70;;;;;;10456340;28;20266;-75
2024/04/02 23:59:23;;;;;;;0.40;0.40;;;11.80;83.30;;;;;;10455662;28;20212;-75
